Sand Springs, Oklahoma
Current Conditions -  °F | °C
As of 4:15 PM on Thursday 27 Nov 2014 (Local Time) from KOWP Reporting Station
Clear Clear  
Wind Chill: 46°   Ceiling: Unl
Heat Index: 50°   Visibility: 10mi
Dew Point: 20°   Wind: 8mph
Humidity: 31%   Direction: 140°SE
Pressure: 30.38"   Gusts: NA
Location:  36.14°N, 96.11°W
Report Text: KOWP 272215Z AUTO 14007KT 10SM CLR 10/M07 A3038 RMK AO2 T00981066
Loading
Personal Weather Stations






























Interactive Weather Map New forecast layout! Learn more

10-Day Weather Forecast

Advertisements
Track Severe Weather on mobile